DLH221 EHAM-EDDF
Flight info
| Callsign | DLH221 |
|---|---|
| Flight time | 0h 51m |
| Altitude | 35000 |
| Route | EDUPO Z739 MISGO DCT DIXAT DIXAT1A |
| Aircraft | A320/M-SDE3FGHIRWY/LB1 |
Departure
| Time | 2026-05-05 18:44 |
|---|---|
| Airport | Amsterdam Airport Schiphol (EHAM) |
Arrival
| Time | 2026-05-05 19:35 |
|---|---|
| Airport | Frankfurt Main Airport (EDDF) |
| Time | Latitude | Longitude | Altitude | Speed | Heading |
|---|---|---|---|---|---|
| 2026-05-05 18:30 | 52.31292 | 4.74407 | -2 ft | 0 kts | 274° |
| 2026-05-05 18:38 | 52.31293 | 4.74381 | -2 ft | 9 kts | 274° |
| 2026-05-05 18:39 | 52.31251 | 4.74267 | -2 ft | 14 kts | 191° |
| 2026-05-05 18:39 | 52.31139 | 4.74255 | -3 ft | 21 kts | 181° |
| 2026-05-05 18:39 | 52.30996 | 4.74243 | -3 ft | 20 kts | 184° |
| 2026-05-05 18:39 | 52.30860 | 4.74230 | -3 ft | 19 kts | 184° |
| 2026-05-05 18:40 | 52.30736 | 4.74217 | -3 ft | 17 kts | 183° |
| 2026-05-05 18:40 | 52.30660 | 4.74210 | -3 ft | 16 kts | 183° |
| 2026-05-05 18:40 | 52.30593 | 4.74122 | -2 ft | 13 kts | 269° |
| 2026-05-05 18:40 | 52.30527 | 4.74056 | -2 ft | 15 kts | 183° |
| 2026-05-05 18:41 | 52.30412 | 4.74046 | -2 ft | 16 kts | 183° |
| 2026-05-05 18:41 | 52.30309 | 4.74010 | -2 ft | 14 kts | 208° |
| 2026-05-05 18:41 | 52.30241 | 4.73939 | -3 ft | 9 kts | 217° |
| 2026-05-05 18:41 | 52.30222 | 4.73915 | -3 ft | 0 kts | 219° |
| 2026-05-05 18:42 | 52.30217 | 4.73908 | -3 ft | 0 kts | 219° |
| 2026-05-05 18:42 | 52.30212 | 4.73902 | -3 ft | 2 kts | 219° |
| 2026-05-05 18:42 | 52.30190 | 4.73853 | -4 ft | 12 kts | 245° |
| 2026-05-05 18:43 | 52.30223 | 4.73740 | -5 ft | 13 kts | 341° |
| 2026-05-05 18:43 | 52.30345 | 4.73747 | -8 ft | 31 kts | 2° |
| 2026-05-05 18:43 | 52.30792 | 4.73791 | 0 ft | 95 kts | 3° |
| 2026-05-05 18:43 | 52.31638 | 4.73868 | -4 ft | 145 kts | 2° |
| 2026-05-05 18:44 | 52.32724 | 4.73991 | 383 ft | 161 kts | 6° |
| 2026-05-05 18:44 | 52.33842 | 4.74364 | 1028 ft | 166 kts | 21° |
| 2026-05-05 18:44 | 52.34900 | 4.75124 | 1755 ft | 169 kts | 26° |
| 2026-05-05 18:44 | 52.35976 | 4.75934 | 2487 ft | 171 kts | 25° |
| 2026-05-05 18:45 | 52.37057 | 4.76727 | 3194 ft | 169 kts | 26° |
| 2026-05-05 18:45 | 52.38069 | 4.77672 | 3896 ft | 165 kts | 36° |
| 2026-05-05 18:45 | 52.38912 | 4.78903 | 4585 ft | 160 kts | 43° |
| 2026-05-05 18:45 | 52.39680 | 4.80155 | 5268 ft | 154 kts | 43° |
| 2026-05-05 18:46 | 52.40430 | 4.81391 | 5826 ft | 158 kts | 42° |
| 2026-05-05 18:46 | 52.41281 | 4.82804 | 5905 ft | 191 kts | 45° |
| 2026-05-05 18:46 | 52.42063 | 4.84792 | 5930 ft | 230 kts | 67° |
| 2026-05-05 18:46 | 52.42387 | 4.87502 | 6260 ft | 258 kts | 85° |
| 2026-05-05 18:47 | 52.42400 | 4.90556 | 6839 ft | 272 kts | 87° |
| 2026-05-05 18:47 | 52.42404 | 4.93650 | 7609 ft | 277 kts | 88° |
| 2026-05-05 18:47 | 52.42322 | 4.96850 | 8395 ft | 284 kts | 101° |
| 2026-05-05 18:47 | 52.41462 | 4.99784 | 9142 ft | 291 kts | 131° |
| 2026-05-05 18:48 | 52.39891 | 5.01894 | 9935 ft | 294 kts | 145° |
| 2026-05-05 18:48 | 52.38227 | 5.03810 | 10698 ft | 297 kts | 145° |
| 2026-05-05 18:48 | 52.36520 | 5.05749 | 11476 ft | 300 kts | 145° |
| 2026-05-05 18:48 | 52.34795 | 5.07708 | 12237 ft | 303 kts | 145° |
| 2026-05-05 18:49 | 52.33109 | 5.09842 | 12784 ft | 306 kts | 135° |
| 2026-05-05 18:49 | 52.31643 | 5.12388 | 13374 ft | 309 kts | 132° |
| 2026-05-05 18:49 | 52.30200 | 5.15015 | 14091 ft | 311 kts | 131° |
| 2026-05-05 18:49 | 52.28760 | 5.17675 | 14783 ft | 314 kts | 131° |
| 2026-05-05 18:50 | 52.27307 | 5.20359 | 15466 ft | 316 kts | 131° |
| 2026-05-05 18:50 | 52.25857 | 5.23027 | 16135 ft | 318 kts | 132° |
| 2026-05-05 18:50 | 52.24388 | 5.25766 | 16811 ft | 320 kts | 129° |
| 2026-05-05 18:50 | 52.23034 | 5.28640 | 17478 ft | 323 kts | 127° |
| 2026-05-05 18:51 | 52.21721 | 5.31634 | 18155 ft | 325 kts | 126° |
| 2026-05-05 18:51 | 52.20423 | 5.34686 | 18713 ft | 328 kts | 126° |
| 2026-05-05 18:51 | 52.19128 | 5.37750 | 19276 ft | 330 kts | 126° |
| 2026-05-05 18:51 | 52.17806 | 5.40855 | 19824 ft | 333 kts | 126° |
| 2026-05-05 18:52 | 52.16487 | 5.43925 | 20402 ft | 334 kts | 127° |
| 2026-05-05 18:52 | 52.15141 | 5.47035 | 20959 ft | 336 kts | 127° |
| 2026-05-05 18:52 | 52.13778 | 5.50165 | 21503 ft | 339 kts | 127° |
| 2026-05-05 18:52 | 52.12400 | 5.53321 | 22018 ft | 342 kts | 127° |
| 2026-05-05 18:53 | 52.11024 | 5.56460 | 22526 ft | 345 kts | 128° |
| 2026-05-05 18:53 | 52.09617 | 5.59656 | 23057 ft | 348 kts | 128° |
| 2026-05-05 18:53 | 52.08195 | 5.62883 | 23559 ft | 351 kts | 128° |
| 2026-05-05 18:53 | 52.06786 | 5.66085 | 23998 ft | 353 kts | 128° |
| 2026-05-05 18:54 | 52.05293 | 5.69272 | 24452 ft | 354 kts | 131° |
| 2026-05-05 18:54 | 52.03710 | 5.72369 | 24896 ft | 355 kts | 133° |
| 2026-05-05 18:54 | 52.02099 | 5.75364 | 25354 ft | 356 kts | 134° |
| 2026-05-05 18:54 | 52.00436 | 5.78386 | 25804 ft | 358 kts | 135° |
| 2026-05-05 18:55 | 51.98767 | 5.81411 | 26242 ft | 360 kts | 134° |
| 2026-05-05 18:55 | 51.97116 | 5.84426 | 26674 ft | 362 kts | 134° |
| 2026-05-05 18:55 | 51.95445 | 5.87512 | 27090 ft | 363 kts | 134° |
| 2026-05-05 18:55 | 51.93774 | 5.90624 | 27556 ft | 364 kts | 134° |
| 2026-05-05 18:56 | 51.92128 | 5.93694 | 27971 ft | 366 kts | 134° |
| 2026-05-05 18:56 | 51.90454 | 5.96821 | 28403 ft | 367 kts | 134° |
| 2026-05-05 18:56 | 51.88769 | 5.99969 | 28815 ft | 369 kts | 133° |
| 2026-05-05 18:56 | 51.87086 | 6.03098 | 29237 ft | 370 kts | 133° |
| 2026-05-05 18:57 | 51.85379 | 6.06263 | 29643 ft | 372 kts | 133° |
| 2026-05-05 18:57 | 51.83693 | 6.09382 | 30005 ft | 373 kts | 134° |
| 2026-05-05 18:57 | 51.81968 | 6.12558 | 30341 ft | 375 kts | 134° |
| 2026-05-05 18:57 | 51.80238 | 6.15723 | 30679 ft | 376 kts | 134° |
| 2026-05-05 18:58 | 51.78494 | 6.18906 | 31017 ft | 377 kts | 134° |
| 2026-05-05 18:58 | 51.76771 | 6.22052 | 31349 ft | 379 kts | 134° |
| 2026-05-05 18:58 | 51.75026 | 6.25245 | 31679 ft | 380 kts | 134° |
| 2026-05-05 18:58 | 51.73268 | 6.28451 | 32010 ft | 381 kts | 134° |
| 2026-05-05 18:59 | 51.71499 | 6.31672 | 32318 ft | 382 kts | 134° |
| 2026-05-05 18:59 | 51.69724 | 6.34896 | 32652 ft | 383 kts | 135° |
| 2026-05-05 18:59 | 51.67974 | 6.38067 | 32839 ft | 384 kts | 135° |
| 2026-05-05 18:59 | 51.66201 | 6.41277 | 32871 ft | 383 kts | 135° |
| 2026-05-05 19:00 | 51.62665 | 6.47694 | 32871 ft | 382 kts | 134° |
| 2026-05-05 19:00 | 51.59137 | 6.54097 | 32873 ft | 380 kts | 134° |
| 2026-05-05 19:01 | 51.55637 | 6.60410 | 32671 ft | 381 kts | 134° |
| 2026-05-05 19:01 | 51.53835 | 6.63646 | 31533 ft | 393 kts | 134° |
| 2026-05-05 19:01 | 51.51985 | 6.66971 | 30368 ft | 403 kts | 133° |
| 2026-05-05 19:02 | 51.50107 | 6.70342 | 29014 ft | 406 kts | 133° |
| 2026-05-05 19:02 | 51.48220 | 6.73730 | 27814 ft | 404 kts | 134° |
| 2026-05-05 19:02 | 51.46358 | 6.77067 | 26774 ft | 399 kts | 133° |
| 2026-05-05 19:02 | 51.44529 | 6.80345 | 26152 ft | 398 kts | 134° |
| 2026-05-05 19:03 | 51.42660 | 6.83682 | 25935 ft | 403 kts | 134° |
| 2026-05-05 19:03 | 51.40785 | 6.87024 | 25842 ft | 404 kts | 134° |
| 2026-05-05 19:03 | 51.38937 | 6.90441 | 25858 ft | 406 kts | 131° |
| 2026-05-05 19:03 | 51.37169 | 6.93927 | 25858 ft | 407 kts | 130° |
| 2026-05-05 19:04 | 51.35421 | 6.97501 | 25860 ft | 406 kts | 129° |
| 2026-05-05 19:04 | 51.33692 | 7.01082 | 25857 ft | 406 kts | 129° |
| 2026-05-05 19:04 | 51.31954 | 7.04666 | 25841 ft | 406 kts | 129° |
| 2026-05-05 19:04 | 51.30207 | 7.08222 | 25843 ft | 406 kts | 129° |
| 2026-05-05 19:05 | 51.28442 | 7.11772 | 25838 ft | 406 kts | 130° |
| 2026-05-05 19:05 | 51.26555 | 7.15040 | 25836 ft | 404 kts | 142° |
| 2026-05-05 19:05 | 51.24231 | 7.17553 | 25828 ft | 403 kts | 150° |
| 2026-05-05 19:05 | 51.21758 | 7.19689 | 25852 ft | 403 kts | 154° |
| 2026-05-05 19:06 | 51.19251 | 7.21567 | 25846 ft | 402 kts | 156° |
| 2026-05-05 19:06 | 51.16678 | 7.23386 | 25846 ft | 402 kts | 156° |
| 2026-05-05 19:06 | 51.14125 | 7.25204 | 25843 ft | 402 kts | 155° |
| 2026-05-05 19:06 | 51.11578 | 7.27081 | 25843 ft | 402 kts | 155° |
| 2026-05-05 19:07 | 51.09090 | 7.29018 | 25835 ft | 402 kts | 153° |
| 2026-05-05 19:07 | 51.06604 | 7.31053 | 25829 ft | 402 kts | 152° |
| 2026-05-05 19:07 | 51.04129 | 7.33134 | 25835 ft | 402 kts | 152° |
| 2026-05-05 19:07 | 51.01651 | 7.35230 | 25824 ft | 402 kts | 152° |
| 2026-05-05 19:08 | 50.99172 | 7.37316 | 25818 ft | 402 kts | 152° |
| 2026-05-05 19:08 | 50.96736 | 7.39346 | 25368 ft | 398 kts | 152° |
| 2026-05-05 19:08 | 50.94287 | 7.41363 | 24762 ft | 395 kts | 152° |
| 2026-05-05 19:08 | 50.91848 | 7.43363 | 24174 ft | 393 kts | 153° |
| 2026-05-05 19:09 | 50.89417 | 7.45349 | 23607 ft | 390 kts | 153° |
| 2026-05-05 19:09 | 50.87006 | 7.47317 | 22980 ft | 388 kts | 153° |
| 2026-05-05 19:09 | 50.84643 | 7.49248 | 22358 ft | 385 kts | 153° |
| 2026-05-05 19:09 | 50.82264 | 7.51190 | 21754 ft | 383 kts | 153° |
| 2026-05-05 19:10 | 50.79897 | 7.53122 | 21188 ft | 380 kts | 153° |
| 2026-05-05 19:10 | 50.77585 | 7.55011 | 20646 ft | 377 kts | 153° |
| 2026-05-05 19:10 | 50.75247 | 7.56921 | 20096 ft | 374 kts | 153° |
| 2026-05-05 19:10 | 50.72956 | 7.58782 | 19583 ft | 372 kts | 153° |
| 2026-05-05 19:11 | 50.70655 | 7.60649 | 19069 ft | 370 kts | 153° |
| 2026-05-05 19:11 | 50.68369 | 7.62500 | 18566 ft | 368 kts | 153° |
| 2026-05-05 19:11 | 50.66099 | 7.64332 | 18070 ft | 366 kts | 153° |
| 2026-05-05 19:11 | 50.63823 | 7.66162 | 17527 ft | 364 kts | 153° |
| 2026-05-05 19:12 | 50.61599 | 7.67954 | 16998 ft | 362 kts | 154° |
| 2026-05-05 19:12 | 50.59360 | 7.69765 | 16344 ft | 358 kts | 154° |
| 2026-05-05 19:12 | 50.57154 | 7.71552 | 15447 ft | 355 kts | 154° |
| 2026-05-05 19:12 | 50.54967 | 7.73325 | 14599 ft | 351 kts | 154° |
| 2026-05-05 19:13 | 50.52821 | 7.75060 | 13788 ft | 347 kts | 154° |
| 2026-05-05 19:13 | 50.50675 | 7.76785 | 12887 ft | 344 kts | 154° |
| 2026-05-05 19:13 | 50.48559 | 7.78482 | 12016 ft | 339 kts | 154° |
| 2026-05-05 19:13 | 50.46459 | 7.80161 | 11173 ft | 335 kts | 154° |
| 2026-05-05 19:14 | 50.44411 | 7.81794 | 10356 ft | 331 kts | 154° |
| 2026-05-05 19:14 | 50.42456 | 7.83737 | 9967 ft | 332 kts | 145° |
| 2026-05-05 19:14 | 50.40623 | 7.85899 | 9824 ft | 332 kts | 143° |
| 2026-05-05 19:14 | 50.38802 | 7.88172 | 9818 ft | 332 kts | 142° |
| 2026-05-05 19:15 | 50.37002 | 7.90461 | 9824 ft | 333 kts | 143° |
| 2026-05-05 19:15 | 50.35214 | 7.92737 | 9827 ft | 335 kts | 143° |
| 2026-05-05 19:15 | 50.33398 | 7.95034 | 9828 ft | 335 kts | 143° |
| 2026-05-05 19:15 | 50.31813 | 7.97729 | 9826 ft | 339 kts | 124° |
| 2026-05-05 19:16 | 50.30908 | 8.01156 | 9827 ft | 343 kts | 103° |
| 2026-05-05 19:16 | 50.30508 | 8.04801 | 9830 ft | 344 kts | 101° |
| 2026-05-05 19:16 | 50.30128 | 8.08488 | 9661 ft | 341 kts | 101° |
| 2026-05-05 19:16 | 50.29754 | 8.12162 | 9123 ft | 339 kts | 101° |
| 2026-05-05 19:17 | 50.29384 | 8.15770 | 8843 ft | 339 kts | 101° |
| 2026-05-05 19:17 | 50.29004 | 8.19412 | 8825 ft | 339 kts | 101° |
| 2026-05-05 19:17 | 50.28624 | 8.22983 | 8830 ft | 324 kts | 101° |
| 2026-05-05 19:17 | 50.28264 | 8.26371 | 8831 ft | 307 kts | 101° |
| 2026-05-05 19:18 | 50.27919 | 8.29593 | 8832 ft | 297 kts | 101° |
| 2026-05-05 19:18 | 50.27583 | 8.32732 | 8833 ft | 296 kts | 102° |
| 2026-05-05 19:18 | 50.27239 | 8.35912 | 8836 ft | 296 kts | 102° |
| 2026-05-05 19:18 | 50.26898 | 8.39087 | 8834 ft | 295 kts | 102° |
| 2026-05-05 19:19 | 50.26564 | 8.42214 | 8706 ft | 293 kts | 102° |
| 2026-05-05 19:19 | 50.26222 | 8.45385 | 8279 ft | 292 kts | 102° |
| 2026-05-05 19:19 | 50.25886 | 8.48462 | 7931 ft | 289 kts | 102° |
| 2026-05-05 19:19 | 50.25555 | 8.51500 | 7807 ft | 277 kts | 102° |
| 2026-05-05 19:20 | 50.25243 | 8.54384 | 7813 ft | 262 kts | 102° |
| 2026-05-05 19:20 | 50.24938 | 8.57188 | 7816 ft | 258 kts | 102° |
| 2026-05-05 19:20 | 50.24636 | 8.59918 | 7817 ft | 258 kts | 102° |
| 2026-05-05 19:20 | 50.24331 | 8.62695 | 7817 ft | 258 kts | 102° |
| 2026-05-05 19:21 | 50.24027 | 8.65454 | 7816 ft | 257 kts | 102° |
| 2026-05-05 19:21 | 50.23722 | 8.68212 | 7817 ft | 258 kts | 102° |
| 2026-05-05 19:21 | 50.23421 | 8.70940 | 7817 ft | 258 kts | 102° |
| 2026-05-05 19:21 | 50.23116 | 8.73696 | 7817 ft | 258 kts | 102° |
| 2026-05-05 19:22 | 50.22912 | 8.76489 | 7558 ft | 257 kts | 95° |
| 2026-05-05 19:22 | 50.22838 | 8.79242 | 7221 ft | 256 kts | 94° |
| 2026-05-05 19:22 | 50.22778 | 8.82024 | 6909 ft | 254 kts | 94° |
| 2026-05-05 19:22 | 50.22720 | 8.84784 | 6812 ft | 253 kts | 94° |
| 2026-05-05 19:23 | 50.22663 | 8.87539 | 6819 ft | 254 kts | 94° |
| 2026-05-05 19:23 | 50.22606 | 8.90280 | 6820 ft | 255 kts | 94° |
| 2026-05-05 19:23 | 50.22549 | 8.93058 | 6821 ft | 255 kts | 94° |
| 2026-05-05 19:23 | 50.22492 | 8.95829 | 6822 ft | 255 kts | 94° |
| 2026-05-05 19:24 | 50.22435 | 8.98573 | 6824 ft | 255 kts | 94° |
| 2026-05-05 19:24 | 50.22377 | 9.01347 | 6823 ft | 254 kts | 94° |
| 2026-05-05 19:24 | 50.22319 | 9.04108 | 6824 ft | 254 kts | 94° |
| 2026-05-05 19:24 | 50.22265 | 9.06790 | 6811 ft | 239 kts | 94° |
| 2026-05-05 19:25 | 50.22233 | 9.08457 | 6827 ft | 237 kts | 94° |
| 2026-05-05 19:25 | 50.22177 | 9.11135 | 6828 ft | 252 kts | 95° |
| 2026-05-05 19:25 | 50.21760 | 9.13750 | 6825 ft | 248 kts | 123° |
| 2026-05-05 19:25 | 50.20096 | 9.15990 | 6824 ft | 238 kts | 165° |
| 2026-05-05 19:26 | 50.18486 | 9.16164 | 6823 ft | 232 kts | 194° |
| 2026-05-05 19:26 | 50.17485 | 9.15604 | 6822 ft | 230 kts | 212° |
| 2026-05-05 19:26 | 50.16319 | 9.13943 | 6823 ft | 229 kts | 237° |
| 2026-05-05 19:26 | 50.15769 | 9.11621 | 6822 ft | 231 kts | 262° |
| 2026-05-05 19:27 | 50.15600 | 9.09121 | 6799 ft | 232 kts | 262° |
| 2026-05-05 19:27 | 50.15434 | 9.06622 | 6507 ft | 230 kts | 262° |
| 2026-05-05 19:27 | 50.15272 | 9.04176 | 6172 ft | 228 kts | 262° |
| 2026-05-05 19:27 | 50.15107 | 9.01720 | 5675 ft | 227 kts | 262° |
| 2026-05-05 19:28 | 50.14942 | 8.99291 | 5193 ft | 226 kts | 262° |
| 2026-05-05 19:28 | 50.14737 | 8.96877 | 5009 ft | 224 kts | 256° |
| 2026-05-05 19:28 | 50.14306 | 8.94521 | 5016 ft | 226 kts | 250° |
| 2026-05-05 19:28 | 50.13785 | 8.92242 | 5006 ft | 214 kts | 249° |
| 2026-05-05 19:29 | 50.13302 | 8.90194 | 5003 ft | 193 kts | 249° |
| 2026-05-05 19:29 | 50.12853 | 8.88289 | 5037 ft | 183 kts | 249° |
| 2026-05-05 19:29 | 50.12414 | 8.86426 | 4986 ft | 182 kts | 249° |
| 2026-05-05 19:29 | 50.11977 | 8.84570 | 4795 ft | 181 kts | 249° |
| 2026-05-05 19:30 | 50.11545 | 8.82732 | 4560 ft | 180 kts | 249° |
| 2026-05-05 19:30 | 50.11113 | 8.80902 | 4301 ft | 179 kts | 249° |
| 2026-05-05 19:30 | 50.10685 | 8.79087 | 4043 ft | 179 kts | 249° |
| 2026-05-05 19:30 | 50.10256 | 8.77270 | 3790 ft | 179 kts | 250° |
| 2026-05-05 19:31 | 50.09827 | 8.75452 | 3542 ft | 179 kts | 250° |
| 2026-05-05 19:31 | 50.09396 | 8.73633 | 3281 ft | 178 kts | 250° |
| 2026-05-05 19:31 | 50.08971 | 8.71836 | 3028 ft | 178 kts | 250° |
| 2026-05-05 19:31 | 50.08542 | 8.70026 | 2771 ft | 177 kts | 250° |
| 2026-05-05 19:32 | 50.08125 | 8.68266 | 2529 ft | 166 kts | 250° |
| 2026-05-05 19:32 | 50.07745 | 8.66662 | 2289 ft | 150 kts | 249° |
| 2026-05-05 19:32 | 50.07403 | 8.65222 | 2082 ft | 138 kts | 250° |
| 2026-05-05 19:32 | 50.07074 | 8.63839 | 1888 ft | 134 kts | 249° |
| 2026-05-05 19:33 | 50.06753 | 8.62487 | 1702 ft | 132 kts | 249° |
| 2026-05-05 19:33 | 50.06433 | 8.61143 | 1513 ft | 132 kts | 249° |
| 2026-05-05 19:33 | 50.06114 | 8.59802 | 1320 ft | 132 kts | 249° |
| 2026-05-05 19:33 | 50.05795 | 8.58465 | 1116 ft | 134 kts | 249° |
| 2026-05-05 19:34 | 50.05469 | 8.57094 | 938 ft | 135 kts | 249° |
| 2026-05-05 19:34 | 50.05139 | 8.55713 | 743 ft | 135 kts | 248° |
| 2026-05-05 19:34 | 50.04813 | 8.54345 | 563 ft | 136 kts | 248° |
| 2026-05-05 19:35 | 50.04190 | 8.51730 | 349 ft | 101 kts | 249° |
| 2026-05-05 19:35 | 50.04006 | 8.50959 | 349 ft | 51 kts | 250° |
| 2026-05-05 19:35 | 50.03925 | 8.50633 | 349 ft | 26 kts | 242° |
| 2026-05-05 19:35 | 50.03835 | 8.50386 | 353 ft | 27 kts | 229° |
| 2026-05-05 19:36 | 50.03719 | 8.50222 | 349 ft | 6 kts | 219° |
| 2026-05-05 19:36 | 50.03688 | 8.50189 | 349 ft | 5 kts | 210° |
| 2026-05-05 19:36 | 50.03662 | 8.50179 | 347 ft | 3 kts | 183° |
| 2026-05-05 19:36 | 50.03648 | 8.50188 | 353 ft | 1 kts | 143° |
| 2026-05-05 19:37 | 50.03621 | 8.50245 | 347 ft | 14 kts | 103° |
| 2026-05-05 19:37 | 50.03650 | 8.50373 | 353 ft | 12 kts | 71° |
| 2026-05-05 19:37 | 50.03685 | 8.50525 | 354 ft | 22 kts | 70° |
| 2026-05-05 19:37 | 50.03752 | 8.50801 | 351 ft | 30 kts | 70° |
| 2026-05-05 19:38 | 50.03821 | 8.51105 | 349 ft | 31 kts | 71° |
| 2026-05-05 19:38 | 50.03884 | 8.51362 | 353 ft | 24 kts | 68° |
| 2026-05-05 19:38 | 50.03944 | 8.51613 | 347 ft | 25 kts | 70° |
| 2026-05-05 19:38 | 50.04009 | 8.51880 | 348 ft | 27 kts | 69° |
| 2026-05-05 19:39 | 50.04076 | 8.52160 | 351 ft | 28 kts | 69° |
| 2026-05-05 19:39 | 50.04147 | 8.52451 | 350 ft | 30 kts | 69° |
| 2026-05-05 19:39 | 50.04219 | 8.52757 | 353 ft | 31 kts | 69° |
| 2026-05-05 19:39 | 50.04295 | 8.53072 | 348 ft | 32 kts | 69° |
| 2026-05-05 19:40 | 50.04374 | 8.53397 | 353 ft | 32 kts | 69° |
| 2026-05-05 19:40 | 50.04400 | 8.53563 | 355 ft | 10 kts | 84° |
| 2026-05-05 19:40 | 50.04406 | 8.53665 | 345 ft | 10 kts | 84° |
| 2026-05-05 19:40 | 50.04417 | 8.53833 | 345 ft | 19 kts | 84° |
| 2026-05-05 19:41 | 50.04431 | 8.54044 | 352 ft | 20 kts | 85° |
| 2026-05-05 19:41 | 50.04446 | 8.54274 | 352 ft | 22 kts | 84° |
| 2026-05-05 19:41 | 50.04444 | 8.54520 | 348 ft | 24 kts | 102° |
| 2026-05-05 19:41 | 50.04352 | 8.54735 | 350 ft | 25 kts | 142° |
| 2026-05-05 19:42 | 50.04191 | 8.54842 | 354 ft | 26 kts | 160° |
| 2026-05-05 19:42 | 50.04086 | 8.54901 | 350 ft | 11 kts | 160° |
| 2026-05-05 19:42 | 50.04016 | 8.54940 | 347 ft | 11 kts | 160° |
| 2026-05-05 19:42 | 50.03947 | 8.54981 | 351 ft | 11 kts | 158° |
| 2026-05-05 19:43 | 50.03876 | 8.55025 | 352 ft | 11 kts | 158° |
| 2026-05-05 19:43 | 50.03848 | 8.55115 | 346 ft | 10 kts | 75° |
| 2026-05-05 19:43 | 50.03871 | 8.55207 | 355 ft | 8 kts | 70° |
| 2026-05-05 19:43 | 50.03896 | 8.55313 | 351 ft | 17 kts | 70° |
| 2026-05-05 19:44 | 50.03953 | 8.55551 | 354 ft | 29 kts | 69° |
| 2026-05-05 19:44 | 50.04019 | 8.55826 | 351 ft | 24 kts | 69° |
| 2026-05-05 19:44 | 50.04053 | 8.55969 | 347 ft | 1 kts | 70° |
| 2026-05-05 19:45 | 50.04061 | 8.56006 | 349 ft | 13 kts | 70° |
| 2026-05-05 19:45 | 50.04134 | 8.56091 | 350 ft | 14 kts | 346° |
| 2026-05-05 19:45 | 50.04221 | 8.56040 | 353 ft | 12 kts | 338° |
| 2026-05-05 19:46 | 50.04285 | 8.55967 | 350 ft | 11 kts | 316° |
| 2026-05-05 19:46 | 50.04346 | 8.55928 | 352 ft | 9 kts | 339° |
| 2026-05-05 19:46 | 50.04400 | 8.55922 | 347 ft | 7 kts | 28° |
| 2026-05-05 19:46 | 50.04420 | 8.55985 | 348 ft | 8 kts | 67° |
| 2026-05-05 19:47 | 50.04450 | 8.56102 | 354 ft | 12 kts | 69° |
| 2026-05-05 19:47 | 50.04478 | 8.56219 | 351 ft | 11 kts | 71° |
| 2026-05-05 19:47 | 50.04500 | 8.56321 | 354 ft | 9 kts | 69° |
| 2026-05-05 19:47 | 50.04521 | 8.56407 | 351 ft | 8 kts | 69° |
| 2026-05-05 19:48 | 50.04559 | 8.56449 | 347 ft | 7 kts | 21° |
| 2026-05-05 19:48 | 50.04623 | 8.56492 | 350 ft | 10 kts | 24° |
| 2026-05-05 19:48 | 50.04662 | 8.56563 | 352 ft | 8 kts | 89° |
| 2026-05-05 19:48 | 50.04645 | 8.56640 | 354 ft | 7 kts | 115° |
| 2026-05-05 19:49 | 50.04638 | 8.56662 | 349 ft | 0 kts | 115° |